Wylie, TX

10:41 PM CDT on August 30, 2015 (GMT -0500)
Legend Trail Estates | | Change Station
CLOSE
Current Station
Personal Weather Station
Location: St. Paul, TX
Elevation: 551 ft
Nearby Weather Stations

Elev 551 ft 33.03 °N, 96.54 °W | Updated 8 seconds ago

Clear
Clear
82.4 °F
Feels Like 87 °F
N
7.6
Wind Variable Wind from South
Gusts 10.7 mph

Today
High -- | Low -- °F
--% Chance of Precip.
Yesterday
High -- | Low -- °F
Precip. -- in
6:59 AM 7:53 PM
Full, 97% visible
Pressure 29.95 in
Visibility 10.0 miles
Clouds Clear
Heat Index 87 °F
Dew Point 70 °F
Humidity 67%
Rainfall 0.00 in
Snow Depth Not available.
UV 0 out of 12
Pollen 8.70 out of 12
Air Quality Not available.
Flu Activity Not available.
METAR KF46 310335Z AUTO 18007KT 10SM CLR 27/20 A2995 RMK AO2 T02740195
Pressure 29.95 in
Visibility 10.0 miles
Clouds Clear
Heat Index 87 °F
Dew Point 70 °F
Humidity 67%
Rainfall 0.00 in
Snow Depth Not available.
UV 0 out of 12
Pollen 8.70 out of 12
Air Quality Not available.
Flu Activity Not available.
METAR KF46 310335Z AUTO 18007KT 10SM CLR 27/20 A2995 RMK AO2 T02740195

10-Day Weather Forecast

×

Almanac

Astronomy

Aug. 30, 2015 Rise Set
Actual Time
Civil Twilight
Nautical Twilight
Astronomical Twilight
Moon
Length of Visible Light
Length of Day
Tomorrow will be .
, % of the Moon is Illuminated

Today's Extremes

State Highs State Lows

Community

WunderPhotos

Upload Photos

1,851,179 photos uploaded!

WunderBlogs® & News

Nearby

Air Quality

  Air Quality AQ Index Pollutant
Not available.

Snow Depth

Station Depth Elevation

Earthquake Activity

City Distance Mag. Time & Date
Minimum magnitude displayed is 2.5.

Coastal Water Temperatures

Place Temperature

Stations

Nearby Weather Stations

Station Location Temp. Windchill Dew Point Humidity Wind Precip. Elev Updated Type